Time;durP1;ratioP1;P1;durP2;ratioP2;P2;SDS_P1;SDS_P2;PMS_P1;PMS_P2;Temp;Humidity;BMP_temperature;BMP_pressure;BME280_temperature;BME280_humidity;BME280_pressure;Samples;Min_cycle;Max_cycle;Signal;HPM_P1;HPM_P2
2023/08/31 00:07:55;;;;;;;2.23;1.50;;;16.70;99.90;;;;;;21088841;28;20631;-69
2023/08/31 00:17:58;;;;;;;2.67;1.50;;;16.60;99.90;;;;;;21088494;28;20246;-63
2023/08/31 00:28:04;;;;;;;2.60;1.60;;;16.60;99.90;;;;;;21088129;28;20254;-63
2023/08/31 00:38:06;;;;;;;1.90;1.70;;;16.40;99.90;;;;;;21086772;28;20234;-63
2023/08/31 00:48:08;;;;;;;2.73;1.90;;;16.30;99.90;;;;;;21086166;28;20237;-63
2023/08/31 00:58:10;;;;;;;2.53;1.90;;;16.20;99.90;;;;;;21085972;28;20252;-63
2023/08/31 01:08:12;;;;;;;5.60;2.23;;;16.20;99.90;;;;;;21084349;28;20235;-64
2023/08/31 01:18:18;;;;;;;3.27;2.10;;;16.20;99.90;;;;;;21083226;28;20205;-63
2023/08/31 01:28:19;;;;;;;3.03;2.20;;;16.20;99.90;;;;;;21083334;28;20624;-63
2023/08/31 01:38:27;;;;;;;5.47;2.83;;;16.20;99.90;;;;;;21081930;28;20266;-68
2023/08/31 01:48:29;;;;;;;5.33;3.03;;;16.20;99.90;;;;;;21081456;28;20265;-65
2023/08/31 01:58:31;;;;;;;3.00;2.70;;;16.20;99.90;;;;;;21081091;28;20208;-62
2023/08/31 02:08:32;;;;;;;3.83;2.80;;;16.10;99.90;;;;;;21079924;28;20558;-62
2023/08/31 02:18:34;;;;;;;5.37;3.00;;;16.00;99.90;;;;;;21079759;28;20200;-63
2023/08/31 02:28:36;;;;;;;4.63;3.17;;;15.90;99.90;;;;;;21082670;28;20238;-70
2023/08/31 02:38:40;;;;;;;5.57;3.10;;;15.80;99.90;;;;;;21082017;28;20262;-65
2023/08/31 02:48:41;;;;;;;5.30;3.37;;;15.70;99.90;;;;;;21078208;28;20266;-63
2023/08/31 02:58:43;;;;;;;4.47;3.40;;;15.70;99.90;;;;;;21077853;28;20205;-64
2023/08/31 03:08:45;;;;;;;6.40;3.77;;;15.60;99.90;;;;;;21077889;28;20262;-63
2023/08/31 03:18:47;;;;;;;8.60;3.60;;;15.60;99.90;;;;;;21077163;28;20210;-63
2023/08/31 03:28:48;;;;;;;6.60;3.70;;;15.50;99.90;;;;;;21076935;28;20731;-63
2023/08/31 03:38:50;;;;;;;6.47;3.50;;;15.50;99.90;;;;;;21084850;28;20249;-64
2023/08/31 03:48:52;;;;;;;6.87;3.50;;;15.60;99.90;;;;;;21090974;28;20694;-63
2023/08/31 03:58:54;;;;;;;6.73;3.60;;;15.70;99.90;;;;;;21090192;28;20642;-63
2023/08/31 04:08:56;;;;;;;5.90;3.70;;;15.60;99.90;;;;;;21089622;28;20230;-63
2023/08/31 04:18:57;;;;;;;7.27;3.70;;;15.60;99.90;;;;;;21088625;28;20234;-63
2023/08/31 04:28:59;;;;;;;5.47;3.90;;;15.50;99.90;;;;;;21087459;28;20241;-64
2023/08/31 04:39:01;;;;;;;5.67;4.03;;;15.50;99.90;;;;;;21087229;28;20303;-63
2023/08/31 04:49:03;;;;;;;7.93;3.70;;;15.40;99.90;;;;;;21085988;28;20230;-62
2023/08/31 04:59:05;;;;;;;4.87;3.90;;;15.50;99.90;;;;;;21085085;28;20289;-63
2023/08/31 05:09:08;;;;;;;7.30;4.07;;;15.60;99.90;;;;;;21084859;28;20689;-64
2023/08/31 05:19:09;;;;;;;8.67;4.73;;;15.60;99.90;;;;;;21083505;28;20199;-62
2023/08/31 05:29:11;;;;;;;5.60;4.20;;;15.60;99.90;;;;;;21082922;28;20336;-61
2023/08/31 05:39:13;;;;;;;10.13;5.50;;;15.80;99.90;;;;;;21082004;28;20238;-62
2023/08/31 05:49:15;;;;;;;6.63;4.60;;;15.80;99.90;;;;;;21081246;28;20237;-62
2023/08/31 05:59:16;;;;;;;7.77;5.10;;;15.80;99.90;;;;;;21080286;28;20631;-62
2023/08/31 06:09:18;;;;;;;8.97;4.73;;;15.50;99.90;;;;;;21080407;28;20258;-62
2023/08/31 06:19:20;;;;;;;6.27;4.40;;;15.70;99.90;;;;;;21079935;28;20234;-64
2023/08/31 06:29:22;;;;;;;7.40;4.57;;;16.00;99.90;;;;;;21078774;28;20598;-62
2023/08/31 06:39:24;;;;;;;9.30;4.40;;;16.10;99.90;;;;;;21078745;28;20326;-62
2023/08/31 06:49:27;;;;;;;7.80;3.70;;;16.30;99.90;;;;;;21077816;28;20267;-64
2023/08/31 06:59:29;;;;;;;4.13;3.33;;;16.50;99.90;;;;;;21054258;28;20300;-64
2023/08/31 07:09:30;;;;;;;8.70;3.30;;;16.60;99.80;;;;;;21027627;28;20234;-66
2023/08/31 07:19:36;;;;;;;7.50;3.30;;;16.70;99.50;;;;;;21073265;28;20220;-65
2023/08/31 07:29:37;;;;;;;4.03;2.50;;;16.90;98.30;;;;;;21077631;28;20309;-64
2023/08/31 07:39:40;;;;;;;4.43;2.40;;;16.90;98.40;;;;;;21091257;28;20726;-64
2023/08/31 07:49:42;;;;;;;5.00;2.53;;;17.20;97.80;;;;;;21090042;28;20595;-63
2023/08/31 07:59:43;;;;;;;4.83;2.40;;;17.80;95.70;;;;;;21089405;28;20212;-62
2023/08/31 08:09:45;;;;;;;5.83;2.60;;;18.50;95.20;;;;;;21088481;28;20291;-64
2023/08/31 08:19:47;;;;;;;3.27;2.20;;;;;;;;;;21087594;28;20297;-63
2023/08/31 08:29:50;;;;;;;4.77;1.90;;;;;;;;;;21086874;28;20233;-62
2023/08/31 08:39:52;;;;;;;3.90;2.00;;;;;;;;;;21085277;28;20258;-61
2023/08/31 08:49:57;;;;;;;13.83;7.20;;;18.80;88.40;;;;;;21085103;28;20723;-64
2023/08/31 09:22:43;;;;;;;4.13;2.00;;;18.40;86.10;;;;;;20783355;28;20694;-71
2023/08/31 09:32:52;;;;;;;3.23;1.80;;;18.80;84.20;;;;;;20793307;28;20228;-71
2023/08/31 09:42:54;;;;;;;7.63;2.60;;;;;;;;;;20750572;28;20221;-68
2023/08/31 09:52:57;;;;;;;4.47;2.27;;;;;;;;;;20814409;28;20591;-74
2023/08/31 10:03:03;;;;;;;7.20;2.70;;;18.60;81.10;;;;;;20831234;28;20219;-70
2023/08/31 10:13:06;;;;;;;5.53;1.90;;;18.60;79.80;;;;;;20830409;28;20239;-70
2023/08/31 10:23:08;;;;;;;5.40;2.07;;;18.70;80.40;;;;;;20797022;28;20237;-69
2023/08/31 10:33:21;;;;;;;4.03;2.07;;;18.80;77.20;;;;;;20747568;28;20597;-69
2023/08/31 10:43:24;;;;;;;4.30;2.50;;;19.10;73.10;;;;;;20748090;28;20580;-66
2023/08/31 10:53:39;;;;;;;3.93;1.90;;;19.20;72.80;;;;;;20762437;28;20728;-69
2023/08/31 11:03:57;;;;;;;3.77;1.80;;;19.30;73.50;;;;;;20762543;28;20674;-69
2023/08/31 11:13:59;;;;;;;6.43;1.97;;;19.10;72.30;;;;;;20761889;28;20238;-68
2023/08/31 11:24:01;;;;;;;5.70;2.30;;;18.80;73.00;;;;;;20838171;28;20721;-65
2023/08/31 11:34:04;;;;;;;2.90;1.90;;;18.90;73.90;;;;;;20842273;28;20240;-68
2023/08/31 11:44:08;;;;;;;3.53;2.00;;;19.20;74.40;;;;;;20841436;28;20211;-68
2023/08/31 11:54:11;;;;;;;5.90;2.10;;;19.40;74.70;;;;;;20840595;28;20323;-68
2023/08/31 12:04:14;;;;;;;3.93;1.70;;;19.60;74.50;;;;;;20839753;28;20208;-67
2023/08/31 12:14:21;;;;;;;2.67;2.00;;;20.00;72.80;;;;;;20839147;28;20237;-67
2023/08/31 12:24:24;;;;;;;5.60;1.90;;;20.20;68.30;;;;;;20837137;28;20228;-67
2023/08/31 12:34:26;;;;;;;5.00;1.90;;;20.10;65.70;;;;;;20836786;28;20366;-68
2023/08/31 12:44:27;;;;;;;6.50;2.40;;;20.20;66.00;;;;;;20837131;28;20209;-67
2023/08/31 12:54:29;;;;;;;2.20;1.57;;;20.80;66.00;;;;;;20835764;28;20247;-68
2023/08/31 13:04:31;;;;;;;2.60;1.80;;;20.70;65.00;;;;;;20818419;28;20213;-67
2023/08/31 13:14:34;;;;;;;4.07;2.00;;;20.80;65.10;;;;;;20834231;28;20242;-68
2023/08/31 13:24:36;;;;;;;2.50;1.70;;;20.60;64.60;;;;;;20752493;28;20695;-67
2023/08/31 13:34:37;;;;;;;5.73;1.90;;;20.50;63.80;;;;;;20751863;28;20233;-68
2023/08/31 13:44:39;;;;;;;3.17;1.80;;;20.80;62.60;;;;;;20751742;28;20309;-68
2023/08/31 13:54:41;;;;;;;2.93;1.70;;;21.20;60.10;;;;;;20750332;28;20237;-68
2023/08/31 14:04:43;;;;;;;5.40;2.03;;;22.40;56.90;;;;;;20750342;28;20244;-76
2023/08/31 14:14:46;;;;;;;4.50;2.10;;;22.40;57.40;;;;;;20750825;28;20229;-76
2023/08/31 14:24:47;;;;;;;4.03;2.05;;;25.70;53.30;;;;;;20830140;28;20211;-74
2023/08/31 14:34:49;;;;;;;3.15;1.95;;;26.90;50.50;;;;;;20829743;28;20243;-72
2023/08/31 14:44:52;;;;;;;4.70;2.45;;;28.50;46.70;;;;;;20829979;28;20201;-73
2023/08/31 14:54:54;;;;;;;4.13;2.28;;;25.40;49.70;;;;;;20811577;28;20691;-72
2023/08/31 15:04:57;;;;;;;3.55;1.92;;;25.30;49.10;;;;;;20828893;28;20244;-72
2023/08/31 15:14:59;;;;;;;5.53;2.23;;;25.30;50.30;;;;;;20828449;28;20247;-72
2023/08/31 15:25:01;;;;;;;4.43;2.23;;;24.10;50.40;;;;;;20828149;28;20605;-76
2023/08/31 15:35:04;;;;;;;3.33;2.40;;;23.20;51.40;;;;;;20817079;28;20720;-74
2023/08/31 15:45:07;;;;;;;8.27;2.37;;;22.70;52.10;;;;;;20842054;28;20283;-73
2023/08/31 15:55:09;;;;;;;4.33;2.03;;;22.50;52.90;;;;;;20841176;28;20315;-66
2023/08/31 16:05:10;;;;;;;7.00;2.33;;;22.40;53.40;;;;;;20840400;28;20205;-66
2023/08/31 16:15:12;;;;;;;7.23;2.53;;;22.20;53.90;;;;;;20839300;28;20725;-72
2023/08/31 16:25:17;;;;;;;9.13;2.50;;;22.00;54.60;;;;;;20838896;28;20708;-68
2023/08/31 16:35:19;;;;;;;5.47;2.20;;;21.70;55.30;;;;;;20837597;28;20252;-69
2023/08/31 16:45:21;;;;;;;5.77;2.20;;;22.90;54.10;;;;;;20837424;28;20208;-68
2023/08/31 16:55:23;;;;;;;5.20;2.70;;;21.70;55.60;;;;;;20836634;28;20236;-63
2023/08/31 17:05:28;;;;;;;6.03;2.43;;;21.20;56.60;;;;;;20836005;28;20205;-64
2023/08/31 17:15:31;;;;;;;3.60;2.10;;;20.80;57.80;;;;;;20835354;28;20724;-62
2023/08/31 17:25:33;;;;;;;4.53;2.33;;;20.50;58.60;;;;;;20834464;28;20655;-62
2023/08/31 17:35:34;;;;;;;7.90;2.53;;;20.30;59.60;;;;;;20833987;28;20684;-63
2023/08/31 17:45:36;;;;;;;5.53;2.40;;;20.30;60.60;;;;;;20832388;28;20240;-66
2023/08/31 17:55:38;;;;;;;5.40;2.53;;;20.00;61.30;;;;;;20831190;28;20687;-66
2023/08/31 18:05:55;;;;;;;6.37;2.63;;;20.00;61.90;;;;;;20831234;28;20675;-68
2023/08/31 18:15:57;;;;;;;7.10;3.03;;;19.80;62.60;;;;;;20830821;28;20279;-69
2023/08/31 18:25:59;;;;;;;5.40;2.50;;;19.70;63.40;;;;;;20830219;28;20740;-66
2023/08/31 18:36:01;;;;;;;5.50;2.70;;;19.60;64.10;;;;;;20829426;28;20270;-67
2023/08/31 18:46:02;;;;;;;4.73;3.10;;;19.40;64.70;;;;;;20829531;28;20219;-66
2023/08/31 18:56:04;;;;;;;13.60;2.90;;;19.30;65.30;;;;;;20828909;28;20322;-68
2023/08/31 19:06:06;;;;;;;9.20;2.90;;;19.20;66.10;;;;;;20826339;28;20208;-71
2023/08/31 19:16:09;;;;;;;6.17;2.57;;;19.20;66.80;;;;;;20840189;28;20775;-69
2023/08/31 19:26:14;;;;;;;6.63;2.70;;;19.20;67.50;;;;;;20843266;28;20208;-70
2023/08/31 19:36:15;;;;;;;4.77;2.53;;;19.20;68.10;;;;;;20842308;28;20240;-67
2023/08/31 19:46:17;;;;;;;3.73;2.50;;;19.10;68.90;;;;;;20842271;28;20701;-69
2023/08/31 19:56:19;;;;;;;6.80;2.63;;;19.10;69.50;;;;;;20840823;28;20236;-69
2023/08/31 20:06:21;;;;;;;5.67;2.40;;;19.10;70.50;;;;;;20834458;28;20659;-69
2023/08/31 20:16:25;;;;;;;5.07;2.60;;;19.10;71.50;;;;;;20797697;28;20237;-69
2023/08/31 20:26:26;;;;;;;4.47;2.43;;;19.00;72.10;;;;;;20792666;28;20205;-69
2023/08/31 20:36:28;;;;;;;4.67;2.60;;;19.00;73.30;;;;;;20794120;28;20323;-69
2023/08/31 20:46:32;;;;;;;5.20;2.90;;;19.00;74.00;;;;;;20798669;28;20252;-70
2023/08/31 20:56:34;;;;;;;5.60;3.03;;;19.00;74.60;;;;;;20789510;28;20569;-69
2023/08/31 21:06:36;;;;;;;5.00;2.57;;;18.90;75.40;;;;;;20787523;28;20259;-70
2023/08/31 21:16:38;;;;;;;7.87;2.60;;;18.80;76.10;;;;;;20797210;28;20331;-69
2023/08/31 21:26:40;;;;;;;6.30;2.70;;;18.80;76.90;;;;;;20768972;28;20646;-69
2023/08/31 21:36:42;;;;;;;4.90;2.50;;;18.70;77.90;;;;;;20783064;28;20297;-70
2023/08/31 21:46:44;;;;;;;6.53;2.80;;;18.60;78.90;;;;;;20795540;28;20287;-69
2023/08/31 21:56:46;;;;;;;7.37;2.90;;;18.50;79.70;;;;;;20750330;28;20240;-68
2023/08/31 22:06:48;;;;;;;5.03;2.67;;;18.40;80.90;;;;;;20775515;28;20247;-68
2023/08/31 22:16:50;;;;;;;4.77;2.80;;;18.30;82.50;;;;;;20766388;28;20263;-67
2023/08/31 22:26:52;;;;;;;5.37;2.80;;;18.30;84.10;;;;;;20748411;28;20271;-66
2023/08/31 22:36:54;;;;;;;5.57;2.43;;;18.20;86.10;;;;;;20729883;28;20242;-69
2023/08/31 22:46:55;;;;;;;5.13;2.70;;;18.10;87.70;;;;;;20746150;28;20747;-70
2023/08/31 22:56:57;;;;;;;6.23;2.97;;;18.20;89.50;;;;;;20747709;28;20251;-69
2023/08/31 23:06:59;;;;;;;5.20;2.67;;;18.00;90.50;;;;;;20747376;28;20275;-70
2023/08/31 23:17:01;;;;;;;5.33;2.70;;;17.90;91.40;;;;;;20747108;28;20249;-70
2023/08/31 23:27:03;;;;;;;7.93;2.70;;;17.80;92.50;;;;;;20746571;28;20668;-68
2023/08/31 23:37:05;;;;;;;8.57;2.77;;;17.60;93.60;;;;;;20746038;28;20276;-68
2023/08/31 23:47:07;;;;;;;4.53;2.40;;;17.60;94.80;;;;;;20746198;28;20215;-67
2023/08/31 23:57:09;;;;;;;7.10;3.00;;;17.50;95.90;;;;;;20772163;28;20698;-68
